Station Historical Data
Daily Summary for June 8, 2017 Units:  Both    English   Metric
« Previous Day
Next Day »
Daily Weekly Monthly Yearly Custom
  High: Low: Average:
Temperature: 77.0 °F /  25 °C 47.3 °F /  8.5 °C 63.6 °F /  17.6 °C
Dew Point: 55.3 °F /  12.9 °C 43.3 °F /  6.3 °C 49.3 °F /  9.6 °C
Humidity: 87% 40% 62%
Wind Speed: 10.0mph /  16.1km/h - 1.3mph /  2.1km/h
Wind Gust: 12.0mph /  19.3km/h - -
Wind- - South
Pressure: 30.07 in /  1018.2 hPa 29.82 in /  1009.7 hPa -
Precipitation: 0.00 in /  0 mm    
Historical Graphs
 
 
Tabular Data for June 8, 2017
Time Temperature Dew Point Pressure Wind Wind Speed Wind Gust Humidity Rainfall Rate (Hourly)
00:04 55.2 °F /  12.9 °C 46.3 °F /  7.9 °C 30.07in /  1018.2hPa Calm     72% 0.00in /  0mm
00:09 55.3 °F /  12.9 °C 46.4 °F /  8 °C 30.07in /  1018.2hPa Calm     72% 0.00in /  0mm
00:14 55.0 °F /  12.8 °C 46.1 °F /  7.8 °C 30.07in /  1018.2hPa Calm     72% 0.00in /  0mm
00:19 54.2 °F /  12.3 °C 45.7 °F /  7.6 °C 30.07in /  1018.2hPa Calm     73% 0.00in /  0mm
00:24 53.8 °F /  12.1 °C 46.1 °F /  7.8 °C 30.07in /  1018.2hPa Calm     75% 0.00in /  0mm
00:29 53.9 °F /  12.2 °C 46.2 °F /  7.9 °C 30.07in /  1018.2hPa Calm     75% 0.00in /  0mm
00:34 53.9 °F /  12.2 °C 46.2 °F /  7.9 °C 30.07in /  1018.2hPa Calm     75% 0.00in /  0mm
00:39 53.5 °F /  11.9 °C 46.1 °F /  7.8 °C 30.07in /  1018.2hPa Calm     76% 0.00in /  0mm
00:44 53.7 °F /  12.1 °C 46.3 °F /  7.9 °C 30.06in /  1017.8hPa Calm     76% 0.00in /  0mm
00:49 53.9 °F /  12.2 °C 46.5 °F /  8.1 °C 30.06in /  1017.8hPa Calm     76% 0.00in /  0mm
00:54 53.7 °F /  12.1 °C 46.3 °F /  7.9 °C 30.06in /  1017.8hPa Calm     76% 0.00in /  0mm
00:59 53.4 °F /  11.9 °C 46.4 °F /  8 °C 30.07in /  1018.2hPa Calm     77% 0.00in /  0mm
01:04 53.4 °F /  11.9 °C 46.4 °F /  8 °C 30.06in /  1017.8hPa Calm     77% 0.00in /  0mm
01:09 53.4 °F /  11.9 °C 46.4 °F /  8 °C 30.06in /  1017.8hPa Calm     77% 0.00in /  0mm
01:14 53.4 °F /  11.9 °C 46.4 °F /  8 °C 30.06in /  1017.8hPa Calm     77% 0.00in /  0mm
01:19 53.2 °F /  11.8 °C 46.5 °F /  8.1 °C 30.06in /  1017.8hPa Calm     78% 0.00in /  0mm
01:24 52.9 °F /  11.6 °C 46.2 °F /  7.9 °C 30.06in /  1017.8hPa Calm     78% 0.00in /  0mm
01:29 52.7 °F /  11.5 °C 46.0 °F /  7.8 °C 30.06in /  1017.8hPa Calm     78% 0.00in /  0mm
01:34 52.2 °F /  11.2 °C 45.9 °F /  7.7 °C 30.06in /  1017.8hPa Calm     79% 0.00in /  0mm
01:39 52.3 °F /  11.3 °C 46.0 °F /  7.8 °C 30.06in /  1017.8hPa Calm     79% 0.00in /  0mm
01:44 52.2 °F /  11.2 °C 45.9 °F /  7.7 °C 30.05in /  1017.5hPa Calm     79% 0.00in /  0mm
01:49 52.0 °F /  11.1 °C 45.7 °F /  7.6 °C 30.05in /  1017.5hPa Calm     79% 0.00in /  0mm
01:54 51.9 °F /  11.1 °C 45.9 °F /  7.7 °C 30.05in /  1017.5hPa Calm     80% 0.00in /  0mm
01:59 51.8 °F /  11 °C 45.8 °F /  7.7 °C 30.05in /  1017.5hPa NE 1.0mph /  1.6km/h 2.0mph /  3.2km/h 80% 0.00in /  0mm
02:04 51.8 °F /  11 °C 45.8 °F /  7.7 °C 30.05in /  1017.5hPa Calm   2.0mph /  3.2km/h 80% 0.00in /  0mm
02:09 51.7 °F /  10.9 °C 45.7 °F /  7.6 °C 30.05in /  1017.5hPa Calm   1.0mph /  1.6km/h 80% 0.00in /  0mm
02:14 51.6 °F /  10.9 °C 45.6 °F /  7.6 °C 30.05in /  1017.5hPa Calm     80% 0.00in /  0mm
02:19 51.5 °F /  10.8 °C 45.5 °F /  7.5 °C 30.05in /  1017.5hPa Calm   1.0mph /  1.6km/h 80% 0.00in /  0mm
02:24 51.4 °F /  10.8 °C 45.8 °F /  7.7 °C 30.05in /  1017.5hPa Calm   1.0mph /  1.6km/h 81% 0.00in /  0mm
02:29 51.1 °F /  10.6 °C 45.5 °F /  7.5 °C 30.05in /  1017.5hPa Calm     81% 0.00in /  0mm
02:34 51.0 °F /  10.6 °C 45.4 °F /  7.4 °C 30.05in /  1017.5hPa Calm   1.0mph /  1.6km/h 81% 0.00in /  0mm
02:39 50.8 °F /  10.4 °C 45.2 °F /  7.3 °C 30.04in /  1017.2hPa Calm     81% 0.00in /  0mm
02:44 50.6 °F /  10.3 °C 45.3 °F /  7.4 °C 30.05in /  1017.5hPa Calm     82% 0.00in /  0mm
02:49 50.2 °F /  10.1 °C 44.9 °F /  7.2 °C 30.05in /  1017.5hPa Calm     82% 0.00in /  0mm
02:54 50.2 °F /  10.1 °C 45.2 °F /  7.3 °C 30.05in /  1017.5hPa Calm     83% 0.00in /  0mm
02:59 50.2 °F /  10.1 °C 45.2 °F /  7.3 °C 30.05in /  1017.5hPa Calm     83% 0.00in /  0mm
03:04 49.9 °F /  9.9 °C 44.6 °F /  7 °C 30.04in /  1017.2hPa Calm     82% 0.00in /  0mm
03:09 49.8 °F /  9.9 °C 44.8 °F /  7.1 °C 30.04in /  1017.2hPa Calm     83% 0.00in /  0mm
03:14 49.8 °F /  9.9 °C 44.8 °F /  7.1 °C 30.04in /  1017.2hPa Calm     83% 0.00in /  0mm
03:19 49.7 °F /  9.8 °C 44.7 °F /  7.1 °C 30.04in /  1017.2hPa Calm     83% 0.00in /  0mm
03:24 49.8 °F /  9.9 °C 44.8 °F /  7.1 °C 30.04in /  1017.2hPa Calm     83% 0.00in /  0mm
03:29 49.7 °F /  9.8 °C 44.7 °F /  7.1 °C 30.04in /  1017.2hPa Calm     83% 0.00in /  0mm
03:34 49.8 °F /  9.9 °C 44.8 °F /  7.1 °C 30.04in /  1017.2hPa Calm     83% 0.00in /  0mm
03:39 49.7 °F /  9.8 °C 44.7 °F /  7.1 °C 30.04in /  1017.2hPa Calm     83% 0.00in /  0mm
03:44 49.7 °F /  9.8 °C 44.7 °F /  7.1 °C 30.04in /  1017.2hPa Calm     83% 0.00in /  0mm
03:49 49.4 °F /  9.7 °C 44.5 °F /  6.9 °C 30.04in /  1017.2hPa Calm     83% 0.00in /  0mm
03:54 49.0 °F /  9.4 °C 44.1 °F /  6.7 °C 30.04in /  1017.2hPa Calm     83% 0.00in /  0mm
03:59 48.8 °F /  9.3 °C 44.2 °F /  6.8 °C 30.04in /  1017.2hPa Calm     84% 0.00in /  0mm
04:04 48.5 °F /  9.2 °C 43.9 °F /  6.6 °C 30.04in /  1017.2hPa Calm     84% 0.00in /  0mm
04:09 48.5 °F /  9.2 °C 44.2 °F /  6.8 °C 30.04in /  1017.2hPa Calm     85% 0.00in /  0mm
04:14 48.5 °F /  9.2 °C 44.2 °F /  6.8 °C 30.04in /  1017.2hPa Calm     85% 0.00in /  0mm
04:19 48.5 °F /  9.2 °C 43.9 °F /  6.6 °C 30.04in /  1017.2hPa Calm     84% 0.00in /  0mm
04:24 48.2 °F /  9 °C 43.9 °F /  6.6 °C 30.04in /  1017.2hPa Calm     85% 0.00in /  0mm
04:29 48.3 °F /  9.1 °C 44.0 °F /  6.7 °C 30.04in /  1017.2hPa Calm     85% 0.00in /  0mm
04:34 48.1 °F /  8.9 °C 43.8 °F /  6.6 °C 30.04in /  1017.2hPa Calm     85% 0.00in /  0mm
04:39 48.2 °F /  9 °C 43.9 °F /  6.6 °C 30.04in /  1017.2hPa Calm     85% 0.00in /  0mm
04:44 48.0 °F /  8.9 °C 43.7 °F /  6.5 °C 30.04in /  1017.2hPa Calm     85% 0.00in /  0mm
04:49 47.9 °F /  8.8 °C 43.6 °F /  6.4 °C 30.04in /  1017.2hPa Calm     85% 0.00in /  0mm
04:54 47.8 °F /  8.8 °C 43.5 °F /  6.4 °C 30.04in /  1017.2hPa Calm     85% 0.00in /  0mm
04:59 47.7 °F /  8.7 °C 43.4 °F /  6.3 °C 30.04in /  1017.2hPa Calm     85% 0.00in /  0mm
05:04 47.7 °F /  8.7 °C 43.7 °F /  6.5 °C 30.04in /  1017.2hPa Calm     86% 0.00in /  0mm
05:09 47.6 °F /  8.7 °C 43.6 °F /  6.4 °C 30.04in /  1017.2hPa Calm     86% 0.00in /  0mm
05:14 47.5 °F /  8.6 °C 43.5 °F /  6.4 °C 30.04in /  1017.2hPa Calm     86% 0.00in /  0mm
05:19 47.7 °F /  8.7 °C 43.7 °F /  6.5 °C 30.04in /  1017.2hPa Calm     86% 0.00in /  0mm
05:24 47.6 °F /  8.7 °C 43.6 °F /  6.4 °C 30.04in /  1017.2hPa Calm     86% 0.00in /  0mm
05:29 47.5 °F /  8.6 °C 43.5 °F /  6.4 °C 30.05in /  1017.5hPa Calm     86% 0.00in /  0mm
05:34 47.5 °F /  8.6 °C 43.5 °F /  6.4 °C 30.05in /  1017.5hPa Calm     86% 0.00in /  0mm
05:39 47.3 °F /  8.5 °C 43.3 °F /  6.3 °C 30.05in /  1017.5hPa Calm     86% 0.00in /  0mm
05:44 47.6 °F /  8.7 °C 43.9 °F /  6.6 °C 30.05in /  1017.5hPa Calm     87% 0.00in /  0mm
05:49 48.0 °F /  8.9 °C 44.3 °F /  6.8 °C 30.05in /  1017.5hPa Calm     87% 0.00in /  0mm
05:54 48.3 °F /  9.1 °C 44.6 °F /  7 °C 30.05in /  1017.5hPa Calm     87% 0.00in /  0mm
05:59 48.3 °F /  9.1 °C 44.3 °F /  6.8 °C 30.06in /  1017.8hPa Calm     86% 0.00in /  0mm
06:04 48.3 °F /  9.1 °C 44.3 °F /  6.8 °C 30.06in /  1017.8hPa Calm     86% 0.00in /  0mm
06:09 48.5 °F /  9.2 °C 44.5 °F /  6.9 °C 30.06in /  1017.8hPa Calm     86% 0.00in /  0mm
06:14 48.9 °F /  9.4 °C 44.9 °F /  7.2 °C 30.06in /  1017.8hPa Calm     86% 0.00in /  0mm
06:19 49.2 °F /  9.6 °C 44.9 °F /  7.2 °C 30.06in /  1017.8hPa Calm     85% 0.00in /  0mm
06:24 49.4 °F /  9.7 °C 45.1 °F /  7.3 °C 30.06in /  1017.8hPa Calm     85% 0.00in /  0mm
06:29 50.0 °F /  10 °C 45.7 °F /  7.6 °C 30.06in /  1017.8hPa Calm     85% 0.00in /  0mm
06:34 50.6 °F /  10.3 °C 45.9 °F /  7.7 °C 30.06in /  1017.8hPa Calm   3.0mph /  4.8km/h 84% 0.00in /  0mm
06:39 51.1 °F /  10.6 °C 46.1 °F /  7.8 °C 30.06in /  1017.8hPa NE 1.0mph /  1.6km/h 3.0mph /  4.8km/h 83% 0.00in /  0mm
06:44 51.5 °F /  10.8 °C 46.2 °F /  7.9 °C 30.06in /  1017.8hPa NE 2.0mph /  3.2km/h 2.0mph /  3.2km/h 82% 0.00in /  0mm
06:49 51.9 °F /  11.1 °C 46.3 °F /  7.9 °C 30.06in /  1017.8hPa NE 2.0mph /  3.2km/h 2.0mph /  3.2km/h 81% 0.00in /  0mm
06:54 52.4 °F /  11.3 °C 46.4 °F /  8 °C 30.06in /  1017.8hPa NE 2.0mph /  3.2km/h 2.0mph /  3.2km/h 80% 0.00in /  0mm
06:59 52.8 °F /  11.6 °C 46.5 °F /  8.1 °C 30.07in /  1018.2hPa NE 1.0mph /  1.6km/h 3.0mph /  4.8km/h 79% 0.00in /  0mm
07:04 53.1 °F /  11.7 °C 46.8 °F /  8.2 °C 30.06in /  1017.8hPa NE 1.0mph /  1.6km/h 3.0mph /  4.8km/h 79% 0.00in /  0mm
07:09 53.3 °F /  11.8 °C 47.0 °F /  8.3 °C 30.06in /  1017.8hPa NE 1.0mph /  1.6km/h 4.0mph /  6.4km/h 79% 0.00in /  0mm
07:14 53.6 °F /  12 °C 46.9 °F /  8.3 °C 30.06in /  1017.8hPa NE 1.0mph /  1.6km/h 4.0mph /  6.4km/h 78% 0.00in /  0mm
07:19 54.2 °F /  12.3 °C 47.1 °F /  8.4 °C 30.07in /  1018.2hPa Calm     77% 0.00in /  0mm
07:24 54.6 °F /  12.6 °C 47.2 °F /  8.4 °C 30.06in /  1017.8hPa Calm     76% 0.00in /  0mm
07:29 55.3 °F /  12.9 °C 47.5 °F /  8.6 °C 30.06in /  1017.8hPa Calm     75% 0.00in /  0mm
07:34 55.8 °F /  13.2 °C 48.0 °F /  8.9 °C 30.06in /  1017.8hPa Calm     75% 0.00in /  0mm
07:39 56.3 °F /  13.5 °C 48.1 °F /  8.9 °C 30.06in /  1017.8hPa Calm     74% 0.00in /  0mm
07:44 56.8 °F /  13.8 °C 48.2 °F /  9 °C 30.07in /  1018.2hPa Calm     73% 0.00in /  0mm
07:49 57.3 °F /  14.1 °C 48.3 °F /  9.1 °C 30.06in /  1017.8hPa Calm     72% 0.00in /  0mm
07:54 58.0 °F /  14.4 °C 49.0 °F /  9.4 °C 30.06in /  1017.8hPa NE 1.0mph /  1.6km/h 1.0mph /  1.6km/h 72% 0.00in /  0mm
07:59 58.3 °F /  14.6 °C 48.6 °F /  9.2 °C 30.06in /  1017.8hPa NE 1.0mph /  1.6km/h 3.0mph /  4.8km/h 70% 0.00in /  0mm
08:04 58.5 °F /  14.7 °C 48.7 °F /  9.3 °C 30.06in /  1017.8hPa NE 1.0mph /  1.6km/h 3.0mph /  4.8km/h 70% 0.00in /  0mm
08:09 59.3 °F /  15.2 °C 49.5 °F /  9.7 °C 30.06in /  1017.8hPa Calm   2.0mph /  3.2km/h 70% 0.00in /  0mm
08:14 60.0 °F /  15.6 °C 49.8 °F /  9.9 °C 30.06in /  1017.8hPa Calm   3.0mph /  4.8km/h 69% 0.00in /  0mm
08:19 60.6 °F /  15.9 °C 50.0 °F /  10 °C 30.06in /  1017.8hPa Calm   3.0mph /  4.8km/h 68% 0.00in /  0mm
08:24 61.1 °F /  16.2 °C 50.5 °F /  10.3 °C 30.06in /  1017.8hPa Calm     68% 0.00in /  0mm
08:29 60.7 °F /  15.9 °C 49.7 °F /  9.8 °C 30.06in /  1017.8hPa Calm     67% 0.00in /  0mm
08:34 61.9 °F /  16.6 °C 50.8 °F /  10.4 °C 30.06in /  1017.8hPa Calm     67% 0.00in /  0mm
08:39 62.9 °F /  17.2 °C 50.1 °F /  10.1 °C 30.06in /  1017.8hPa Calm     63% 0.00in /  0mm
08:44 63.1 °F /  17.3 °C 50.7 °F /  10.4 °C 30.06in /  1017.8hPa Calm     64% 0.00in /  0mm
08:49 63.6 °F /  17.6 °C 50.3 °F /  10.2 °C 30.06in /  1017.8hPa Calm     62% 0.00in /  0mm
08:54 63.8 °F /  17.7 °C 50.5 °F /  10.3 °C 30.06in /  1017.8hPa Calm     62% 0.00in /  0mm
08:59 64.6 °F /  18.1 °C 51.7 °F /  10.9 °C 30.06in /  1017.8hPa Calm     63% 0.00in /  0mm
09:04 65.6 °F /  18.7 °C 50.9 °F /  10.5 °C 30.06in /  1017.8hPa Calm     59% 0.00in /  0mm
09:09 66.7 °F /  19.3 °C 51.9 °F /  11.1 °C 30.06in /  1017.8hPa Calm     59% 0.00in /  0mm
09:14 66.2 °F /  19 °C 52.3 °F /  11.3 °C 30.06in /  1017.8hPa Calm     61% 0.00in /  0mm
09:19 66.2 °F /  19 °C 51.9 °F /  11.1 °C 30.06in /  1017.8hPa SSE 1.0mph /  1.6km/h 3.0mph /  4.8km/h 60% 0.00in /  0mm
09:24 66.6 °F /  19.2 °C 49.9 °F /  9.9 °C 30.06in /  1017.8hPa Calm     55% 0.00in /  0mm
09:29 66.6 °F /  19.2 °C 49.9 °F /  9.9 °C 30.05in /  1017.5hPa Calm   4.0mph /  6.4km/h 55% 0.00in /  0mm
09:34 67.8 °F /  19.9 °C 51.5 °F /  10.8 °C 30.05in /  1017.5hPa SE 1.0mph /  1.6km/h 2.0mph /  3.2km/h 56% 0.00in /  0mm
09:39 68.3 °F /  20.2 °C 50.5 °F /  10.3 °C 30.05in /  1017.5hPa ENE 1.0mph /  1.6km/h 4.0mph /  6.4km/h 53% 0.00in /  0mm
09:44 68.1 °F /  20.1 °C 49.3 °F /  9.6 °C 30.05in /  1017.5hPa Calm   2.0mph /  3.2km/h 51% 0.00in /  0mm
09:49 69.2 °F /  20.7 °C 50.3 °F /  10.2 °C 30.05in /  1017.5hPa NNW 1.0mph /  1.6km/h 2.0mph /  3.2km/h 51% 0.00in /  0mm
09:54 69.6 °F /  20.9 °C 50.1 °F /  10.1 °C 30.05in /  1017.5hPa NNW 1.0mph /  1.6km/h 2.0mph /  3.2km/h 50% 0.00in /  0mm
09:59 69.9 °F /  21.1 °C 50.4 °F /  10.2 °C 30.05in /  1017.5hPa NE 1.0mph /  1.6km/h 4.0mph /  6.4km/h 50% 0.00in /  0mm
10:04 70.3 °F /  21.3 °C 52.9 °F /  11.6 °C 30.04in /  1017.2hPa NNE 2.0mph /  3.2km/h 4.0mph /  6.4km/h 54% 0.00in /  0mm
10:14 70.3 °F /  21.3 °C 49.7 °F /  9.8 °C 30.04in /  1017.2hPa NE 1.0mph /  1.6km/h 4.0mph /  6.4km/h 48% 0.00in /  0mm
10:19 70.8 °F /  21.6 °C 49.0 °F /  9.4 °C 30.04in /  1017.2hPa ENE 1.0mph /  1.6km/h 5.0mph /  8km/h 46% 0.00in /  0mm
10:24 70.5 °F /  21.4 °C 47.5 °F /  8.6 °C 30.04in /  1017.2hPa East 2.0mph /  3.2km/h 5.0mph /  8km/h 44% 0.00in /  0mm
10:29 71.1 °F /  21.7 °C 52.0 °F /  11.1 °C 30.03in /  1016.8hPa ESE 1.0mph /  1.6km/h 4.0mph /  6.4km/h 51% 0.00in /  0mm
10:34 71.1 °F /  21.7 °C 48.1 °F /  8.9 °C 30.03in /  1016.8hPa SE 1.0mph /  1.6km/h 4.0mph /  6.4km/h 44% 0.00in /  0mm
10:39 72.1 °F /  22.3 °C 48.4 °F /  9.1 °C 30.03in /  1016.8hPa ESE 1.0mph /  1.6km/h 3.0mph /  4.8km/h 43% 0.00in /  0mm
10:44 72.3 °F /  22.4 °C 49.2 °F /  9.6 °C 30.03in /  1016.8hPa ESE 2.0mph /  3.2km/h 3.0mph /  4.8km/h 44% 0.00in /  0mm
10:49 72.6 °F /  22.6 °C 50.6 °F /  10.3 °C 30.02in /  1016.5hPa Calm   2.0mph /  3.2km/h 46% 0.00in /  0mm
10:54 72.4 °F /  22.4 °C 49.9 °F /  9.9 °C 30.02in /  1016.5hPa NNE 1.0mph /  1.6km/h 6.0mph /  9.7km/h 45% 0.00in /  0mm
10:59 72.0 °F /  22.2 °C 49.5 °F /  9.7 °C 30.02in /  1016.5hPa NE 2.0mph /  3.2km/h 7.0mph /  11.3km/h 45% 0.00in /  0mm
11:04 72.1 °F /  22.3 °C 50.2 °F /  10.1 °C 30.02in /  1016.5hPa ESE 1.0mph /  1.6km/h 4.0mph /  6.4km/h 46% 0.00in /  0mm
11:09 72.6 °F /  22.6 °C 52.3 °F /  11.3 °C 30.02in /  1016.5hPa ESE 2.0mph /  3.2km/h 7.0mph /  11.3km/h 49% 0.00in /  0mm
11:14 72.9 °F /  22.7 °C 52.1 °F /  11.2 °C 30.02in /  1016.5hPa NE 4.0mph /  6.4km/h 6.0mph /  9.7km/h 48% 0.00in /  0mm
11:19 72.7 °F /  22.6 °C 51.3 °F /  10.7 °C 30.01in /  1016.1hPa NW 2.0mph /  3.2km/h 6.0mph /  9.7km/h 47% 0.00in /  0mm
11:24 72.8 °F /  22.7 °C 51.4 °F /  10.8 °C 30.01in /  1016.1hPa North 3.0mph /  4.8km/h 5.0mph /  8km/h 47% 0.00in /  0mm
11:29 72.8 °F /  22.7 °C 52.5 °F /  11.4 °C 30.01in /  1016.1hPa NNE 2.0mph /  3.2km/h 5.0mph /  8km/h 49% 0.00in /  0mm
11:34 73.5 °F /  23.1 °C 52.0 °F /  11.1 °C 30.01in /  1016.1hPa ESE 2.0mph /  3.2km/h 8.0mph /  12.9km/h 47% 0.00in /  0mm
11:39 73.2 °F /  22.9 °C 51.2 °F /  10.7 °C 30.01in /  1016.1hPa ENE 4.0mph /  6.4km/h 8.0mph /  12.9km/h 46% 0.00in /  0mm
11:44 73.1 °F /  22.8 °C 51.1 °F /  10.6 °C 30.00in /  1015.8hPa ENE 3.0mph /  4.8km/h 8.0mph /  12.9km/h 46% 0.00in /  0mm
11:49 72.3 °F /  22.4 °C 49.8 °F /  9.9 °C 30.00in /  1015.8hPa ENE 2.0mph /  3.2km/h 8.0mph /  12.9km/h 45% 0.00in /  0mm
11:54 73.7 °F /  23.2 °C 49.8 °F /  9.9 °C 30.00in /  1015.8hPa NW 2.0mph /  3.2km/h 4.0mph /  6.4km/h 43% 0.00in /  0mm
11:59 73.9 °F /  23.3 °C 51.2 °F /  10.7 °C 29.99in /  1015.5hPa East 2.0mph /  3.2km/h 3.0mph /  4.8km/h 45% 0.00in /  0mm
12:04 74.4 °F /  23.6 °C 51.7 °F /  10.9 °C 29.99in /  1015.5hPa NE 3.0mph /  4.8km/h 8.0mph /  12.9km/h 45% 0.00in /  0mm
12:09 74.2 °F /  23.4 °C 52.7 °F /  11.5 °C 29.99in /  1015.5hPa ENE 1.0mph /  1.6km/h 3.0mph /  4.8km/h 47% 0.00in /  0mm
12:14 73.3 °F /  22.9 °C 48.8 °F /  9.3 °C 29.99in /  1015.5hPa North 2.0mph /  3.2km/h 5.0mph /  8km/h 42% 0.00in /  0mm
12:19 73.3 °F /  22.9 °C 50.7 °F /  10.4 °C 29.99in /  1015.5hPa NW 1.0mph /  1.6km/h 5.0mph /  8km/h 45% 0.00in /  0mm
12:24 74.0 °F /  23.3 °C 52.5 °F /  11.4 °C 29.99in /  1015.5hPa West 1.0mph /  1.6km/h 3.0mph /  4.8km/h 47% 0.00in /  0mm
12:29 74.9 °F /  23.8 °C 51.5 °F /  10.8 °C 29.99in /  1015.5hPa West 1.0mph /  1.6km/h 5.0mph /  8km/h 44% 0.00in /  0mm
12:34 74.7 °F /  23.7 °C 50.7 °F /  10.4 °C 29.99in /  1015.5hPa East 2.0mph /  3.2km/h 8.0mph /  12.9km/h 43% 0.00in /  0mm
12:39 74.5 °F /  23.6 °C 52.4 °F /  11.3 °C 29.98in /  1015.1hPa East 3.0mph /  4.8km/h 8.0mph /  12.9km/h 46% 0.00in /  0mm
12:44 73.5 °F /  23.1 °C 49.0 °F /  9.4 °C 29.98in /  1015.1hPa SSW 2.0mph /  3.2km/h 6.0mph /  9.7km/h 42% 0.00in /  0mm
12:49 74.4 °F /  23.6 °C 53.4 °F /  11.9 °C 29.98in /  1015.1hPa SSW 1.0mph /  1.6km/h 6.0mph /  9.7km/h 48% 0.00in /  0mm
12:54 75.1 °F /  23.9 °C 51.1 °F /  10.6 °C 29.98in /  1015.1hPa SSW 1.0mph /  1.6km/h 4.0mph /  6.4km/h 43% 0.00in /  0mm
12:59 74.5 °F /  23.6 °C 51.2 °F /  10.7 °C 29.98in /  1015.1hPa SW 1.0mph /  1.6km/h 6.0mph /  9.7km/h 44% 0.00in /  0mm
13:04 73.6 °F /  23.1 °C 50.3 °F /  10.2 °C 29.97in /  1014.8hPa NE 1.0mph /  1.6km/h 5.0mph /  8km/h 44% 0.00in /  0mm
13:09 73.8 °F /  23.2 °C 50.5 °F /  10.3 °C 29.97in /  1014.8hPa East 3.0mph /  4.8km/h 9.0mph /  14.5km/h 44% 0.00in /  0mm
13:14 75.5 °F /  24.2 °C 50.8 °F /  10.4 °C 29.97in /  1014.8hPa SE 1.0mph /  1.6km/h 10.0mph /  16.1km/h 42% 0.00in /  0mm
13:19 74.9 °F /  23.8 °C 48.9 °F /  9.4 °C 29.97in /  1014.8hPa NE 4.0mph /  6.4km/h 12.0mph /  19.3km/h 40% 0.00in /  0mm
13:24 74.9 °F /  23.8 °C 52.7 °F /  11.5 °C 29.96in /  1014.4hPa ENE 4.0mph /  6.4km/h 7.0mph /  11.3km/h 46% 0.00in /  0mm
13:29 74.2 °F /  23.4 °C 50.3 °F /  10.2 °C 29.96in /  1014.4hPa ENE 4.0mph /  6.4km/h 10.0mph /  16.1km/h 43% 0.00in /  0mm
13:34 73.2 °F /  22.9 °C 50.6 °F /  10.3 °C 29.96in /  1014.4hPa East 3.0mph /  4.8km/h 10.0mph /  16.1km/h 45% 0.00in /  0mm
13:39 74.7 °F /  23.7 °C 51.3 °F /  10.7 °C 29.96in /  1014.4hPa East 2.0mph /  3.2km/h 7.0mph /  11.3km/h 44% 0.00in /  0mm
13:44 73.7 °F /  23.2 °C 51.0 °F /  10.6 °C 29.95in /  1014.1hPa NNE 2.0mph /  3.2km/h 5.0mph /  8km/h 45% 0.00in /  0mm
13:49 74.2 °F /  23.4 °C 53.2 °F /  11.8 °C 29.95in /  1014.1hPa NNE 5.0mph /  8km/h 6.0mph /  9.7km/h 48% 0.00in /  0mm
13:54 73.7 °F /  23.2 °C 51.0 °F /  10.6 °C 29.95in /  1014.1hPa NNE 3.0mph /  4.8km/h 10.0mph /  16.1km/h 45% 0.00in /  0mm
13:59 73.2 °F /  22.9 °C 51.2 °F /  10.7 °C 29.95in /  1014.1hPa NE 4.0mph /  6.4km/h 10.0mph /  16.1km/h 46% 0.00in /  0mm
14:04 73.2 °F /  22.9 °C 51.2 °F /  10.7 °C 29.94in /  1013.8hPa NE 2.0mph /  3.2km/h 9.0mph /  14.5km/h 46% 0.00in /  0mm
14:09 73.0 °F /  22.8 °C 51.0 °F /  10.6 °C 29.94in /  1013.8hPa ENE 5.0mph /  8km/h 7.0mph /  11.3km/h 46% 0.00in /  0mm
14:14 72.7 °F /  22.6 °C 51.9 °F /  11.1 °C 29.94in /  1013.8hPa North 3.0mph /  4.8km/h 8.0mph /  12.9km/h 48% 0.00in /  0mm
14:19 72.8 °F /  22.7 °C 49.6 °F /  9.8 °C 29.94in /  1013.8hPa NE 2.0mph /  3.2km/h 7.0mph /  11.3km/h 44% 0.00in /  0mm
14:24 75.5 °F /  24.2 °C 53.3 °F /  11.8 °C 29.93in /  1013.4hPa North 2.0mph /  3.2km/h 4.0mph /  6.4km/h 46% 0.00in /  0mm
14:29 75.9 °F /  24.4 °C 53.6 °F /  12 °C 29.93in /  1013.4hPa North 2.0mph /  3.2km/h 5.0mph /  8km/h 46% 0.00in /  0mm
14:34 74.4 °F /  23.6 °C 50.4 °F /  10.2 °C 29.93in /  1013.4hPa NNE 3.0mph /  4.8km/h 7.0mph /  11.3km/h 43% 0.00in /  0mm
14:39 73.3 °F /  22.9 °C 51.3 °F /  10.7 °C 29.93in /  1013.4hPa NE 3.0mph /  4.8km/h 8.0mph /  12.9km/h 46% 0.00in /  0mm
14:44 73.2 °F /  22.9 °C 50.6 °F /  10.3 °C 29.93in /  1013.4hPa NE 3.0mph /  4.8km/h 8.0mph /  12.9km/h 45% 0.00in /  0mm
14:49 74.4 °F /  23.6 °C 50.4 °F /  10.2 °C 29.93in /  1013.4hPa ENE 3.0mph /  4.8km/h 8.0mph /  12.9km/h 43% 0.00in /  0mm
14:54 75.5 °F /  24.2 °C 50.8 °F /  10.4 °C 29.92in /  1013.1hPa Calm   8.0mph /  12.9km/h 42% 0.00in /  0mm
14:59 76.1 °F /  24.5 °C 51.3 °F /  10.7 °C 29.92in /  1013.1hPa NE 1.0mph /  1.6km/h 3.0mph /  4.8km/h 42% 0.00in /  0mm
15:04 75.9 °F /  24.4 °C 53.0 °F /  11.7 °C 29.92in /  1013.1hPa NW 2.0mph /  3.2km/h 8.0mph /  12.9km/h 45% 0.00in /  0mm
15:09 75.7 °F /  24.3 °C 51.0 °F /  10.6 °C 29.92in /  1013.1hPa NW 1.0mph /  1.6km/h 3.0mph /  4.8km/h 42% 0.00in /  0mm
15:14 75.1 °F /  23.9 °C 52.9 °F /  11.6 °C 29.92in /  1013.1hPa NNE 2.0mph /  3.2km/h 9.0mph /  14.5km/h 46% 0.00in /  0mm
15:19 76.0 °F /  24.4 °C 52.5 °F /  11.4 °C 29.91in /  1012.8hPa ENE 10.0mph /  16.1km/h 10.0mph /  16.1km/h 44% 0.00in /  0mm
15:24 76.3 °F /  24.6 °C 52.2 °F /  11.2 °C 29.91in /  1012.8hPa NE 4.0mph /  6.4km/h 10.0mph /  16.1km/h 43% 0.00in /  0mm
15:29 76.3 °F /  24.6 °C 50.2 °F /  10.1 °C 29.91in /  1012.8hPa NE 4.0mph /  6.4km/h 10.0mph /  16.1km/h 40% 0.00in /  0mm
15:34 76.8 °F /  24.9 °C 52.6 °F /  11.4 °C 29.91in /  1012.8hPa NE 3.0mph /  4.8km/h 9.0mph /  14.5km/h 43% 0.00in /  0mm
15:39 76.7 °F /  24.8 °C 51.9 °F /  11.1 °C 29.90in /  1012.4hPa NE 3.0mph /  4.8km/h 8.0mph /  12.9km/h 42% 0.00in /  0mm
15:44 77.0 °F /  25 °C 50.8 °F /  10.4 °C 29.90in /  1012.4hPa ENE 3.0mph /  4.8km/h 8.0mph /  12.9km/h 40% 0.00in /  0mm
15:49 75.5 °F /  24.2 °C 53.3 °F /  11.8 °C 29.90in /  1012.4hPa NE 4.0mph /  6.4km/h 11.0mph /  17.7km/h 46% 0.00in /  0mm
15:54 73.5 °F /  23.1 °C 52.6 °F /  11.4 °C 29.90in /  1012.4hPa NNE 4.0mph /  6.4km/h 11.0mph /  17.7km/h 48% 0.00in /  0mm
15:59 74.5 °F /  23.6 °C 54.1 °F /  12.3 °C 29.89in /  1012.1hPa Calm   6.0mph /  9.7km/h 49% 0.00in /  0mm
16:04 76.1 °F /  24.5 °C 55.0 °F /  12.8 °C 29.89in /  1012.1hPa NNW 2.0mph /  3.2km/h 8.0mph /  12.9km/h 48% 0.00in /  0mm
16:09 76.4 °F /  24.7 °C 55.3 °F /  12.9 °C 29.89in /  1012.1hPa WNW 8.0mph /  12.9km/h 9.0mph /  14.5km/h 48% 0.00in /  0mm
16:14 75.9 °F /  24.4 °C 54.2 °F /  12.3 °C 29.89in /  1012.1hPa NE 4.0mph /  6.4km/h 12.0mph /  19.3km/h 47% 0.00in /  0mm
16:19 75.6 °F /  24.2 °C 55.1 °F /  12.8 °C 29.88in /  1011.7hPa NW 2.0mph /  3.2km/h 10.0mph /  16.1km/h 49% 0.00in /  0mm
16:24 74.8 °F /  23.8 °C 52.6 °F /  11.4 °C 29.88in /  1011.7hPa NNW 3.0mph /  4.8km/h 9.0mph /  14.5km/h 46% 0.00in /  0mm
16:29 73.5 °F /  23.1 °C 52.0 °F /  11.1 °C 29.88in /  1011.7hPa North 4.0mph /  6.4km/h 11.0mph /  17.7km/h 47% 0.00in /  0mm
16:34 73.5 °F /  23.1 °C 53.2 °F /  11.8 °C 29.88in /  1011.7hPa NNW 5.0mph /  8km/h 11.0mph /  17.7km/h 49% 0.00in /  0mm
16:39 74.8 °F /  23.8 °C 54.4 °F /  12.4 °C 29.87in /  1011.4hPa North 4.0mph /  6.4km/h 10.0mph /  16.1km/h 49% 0.00in /  0mm
16:44 74.9 °F /  23.8 °C 54.4 °F /  12.4 °C 29.87in /  1011.4hPa NNW 4.0mph /  6.4km/h 10.0mph /  16.1km/h 49% 0.00in /  0mm
16:49 75.6 °F /  24.2 °C 53.9 °F /  12.2 °C 29.87in /  1011.4hPa NNW 4.0mph /  6.4km/h 10.0mph /  16.1km/h 47% 0.00in /  0mm
16:54 75.2 °F /  24 °C 54.2 °F /  12.3 °C 29.87in /  1011.4hPa NE 3.0mph /  4.8km/h 9.0mph /  14.5km/h 48% 0.00in /  0mm
16:59 74.1 °F /  23.4 °C 53.7 °F /  12.1 °C 29.87in /  1011.4hPa WNW 4.0mph /  6.4km/h 7.0mph /  11.3km/h 49% 0.00in /  0mm
17:04 74.0 °F /  23.3 °C 53.6 °F /  12 °C 29.87in /  1011.4hPa North 4.0mph /  6.4km/h 8.0mph /  12.9km/h 49% 0.00in /  0mm
17:09 74.0 °F /  23.3 °C 53.1 °F /  11.7 °C 29.87in /  1011.4hPa NNE 2.0mph /  3.2km/h 7.0mph /  11.3km/h 48% 0.00in /  0mm
17:14 74.0 °F /  23.3 °C 53.6 °F /  12 °C 29.87in /  1011.4hPa Calm   6.0mph /  9.7km/h 49% 0.00in /  0mm
17:19 73.8 °F /  23.2 °C 52.3 °F /  11.3 °C 29.86in /  1011.1hPa NNW 2.0mph /  3.2km/h 8.0mph /  12.9km/h 47% 0.00in /  0mm
17:24 74.7 °F /  23.7 °C 53.7 °F /  12.1 °C 29.86in /  1011.1hPa NNE 3.0mph /  4.8km/h 7.0mph /  11.3km/h 48% 0.00in /  0mm
17:29 75.1 °F /  23.9 °C 53.5 °F /  11.9 °C 29.86in /  1011.1hPa NW 2.0mph /  3.2km/h 6.0mph /  9.7km/h 47% 0.00in /  0mm
17:34 75.4 °F /  24.1 °C 54.3 °F /  12.4 °C 29.86in /  1011.1hPa North 3.0mph /  4.8km/h 9.0mph /  14.5km/h 48% 0.00in /  0mm
17:39 75.2 °F /  24 °C 53.6 °F /  12 °C 29.86in /  1011.1hPa North 3.0mph /  4.8km/h 9.0mph /  14.5km/h 47% 0.00in /  0mm
17:44 75.0 °F /  23.9 °C 54.0 °F /  12.2 °C 29.86in /  1011.1hPa North 3.0mph /  4.8km/h 9.0mph /  14.5km/h 48% 0.00in /  0mm
17:49 74.8 °F /  23.8 °C 53.2 °F /  11.8 °C 29.85in /  1010.7hPa North 4.0mph /  6.4km/h 9.0mph /  14.5km/h 47% 0.00in /  0mm
17:54 73.9 °F /  23.3 °C 52.4 °F /  11.3 °C 29.86in /  1011.1hPa NNW 2.0mph /  3.2km/h 7.0mph /  11.3km/h 47% 0.00in /  0mm
17:59 73.4 °F /  23 °C 52.5 °F /  11.4 °C 29.85in /  1010.7hPa North 3.0mph /  4.8km/h 8.0mph /  12.9km/h 48% 0.00in /  0mm
18:04 73.9 °F /  23.3 °C 53.0 °F /  11.7 °C 29.85in /  1010.7hPa NNW 5.0mph /  8km/h 10.0mph /  16.1km/h 48% 0.00in /  0mm
18:09 74.1 °F /  23.4 °C 51.4 °F /  10.8 °C 29.85in /  1010.7hPa North 4.0mph /  6.4km/h 10.0mph /  16.1km/h 45% 0.00in /  0mm
18:14 73.7 °F /  23.2 °C 53.3 °F /  11.8 °C 29.85in /  1010.7hPa North 3.0mph /  4.8km/h 9.0mph /  14.5km/h 49% 0.00in /  0mm
18:19 73.8 °F /  23.2 °C 51.7 °F /  10.9 °C 29.85in /  1010.7hPa North 4.0mph /  6.4km/h 8.0mph /  12.9km/h 46% 0.00in /  0mm
18:24 73.5 °F /  23.1 °C 52.6 °F /  11.4 °C 29.85in /  1010.7hPa North 7.0mph /  11.3km/h 9.0mph /  14.5km/h 48% 0.00in /  0mm
18:29 73.1 °F /  22.8 °C 52.8 °F /  11.6 °C 29.84in /  1010.4hPa NE 1.0mph /  1.6km/h 9.0mph /  14.5km/h 49% 0.00in /  0mm
18:34 73.0 °F /  22.8 °C 51.6 °F /  10.9 °C 29.85in /  1010.7hPa NNW 2.0mph /  3.2km/h 10.0mph /  16.1km/h 47% 0.00in /  0mm
18:39 72.8 °F /  22.7 °C 51.4 °F /  10.8 °C 29.84in /  1010.4hPa North 4.0mph /  6.4km/h 10.0mph /  16.1km/h 47% 0.00in /  0mm
18:44 72.5 °F /  22.5 °C 52.2 °F /  11.2 °C 29.84in /  1010.4hPa NNW 4.0mph /  6.4km/h 10.0mph /  16.1km/h 49% 0.00in /  0mm
18:49 72.2 °F /  22.3 °C 50.3 °F /  10.2 °C 29.84in /  1010.4hPa North 5.0mph /  8km/h 8.0mph /  12.9km/h 46% 0.00in /  0mm
18:54 71.9 °F /  22.2 °C 51.1 °F /  10.6 °C 29.84in /  1010.4hPa North 2.0mph /  3.2km/h 11.0mph /  17.7km/h 48% 0.00in /  0mm
18:59 72.0 °F /  22.2 °C 51.2 °F /  10.7 °C 29.84in /  1010.4hPa NNW 6.0mph /  9.7km/h 8.0mph /  12.9km/h 48% 0.00in /  0mm
19:04 71.8 °F /  22.1 °C 51.0 °F /  10.6 °C 29.84in /  1010.4hPa NW 2.0mph /  3.2km/h 11.0mph /  17.7km/h 48% 0.00in /  0mm
19:09 71.6 °F /  22 °C 51.4 °F /  10.8 °C 29.84in /  1010.4hPa North 4.0mph /  6.4km/h 11.0mph /  17.7km/h 49% 0.00in /  0mm
19:14 71.4 °F /  21.9 °C 51.2 °F /  10.7 °C 29.84in /  1010.4hPa North 4.0mph /  6.4km/h 11.0mph /  17.7km/h 49% 0.00in /  0mm
19:19 71.3 °F /  21.8 °C 51.1 °F /  10.6 °C 29.84in /  1010.4hPa North 4.0mph /  6.4km/h 11.0mph /  17.7km/h 49% 0.00in /  0mm
19:24 71.1 °F /  21.7 °C 51.5 °F /  10.8 °C 29.84in /  1010.4hPa North 3.0mph /  4.8km/h 6.0mph /  9.7km/h 50% 0.00in /  0mm
19:29 71.0 °F /  21.7 °C 50.9 °F /  10.5 °C 29.84in /  1010.4hPa North 3.0mph /  4.8km/h 7.0mph /  11.3km/h 49% 0.00in /  0mm
19:34 70.6 °F /  21.4 °C 51.1 °F /  10.6 °C 29.84in /  1010.4hPa NNW 2.0mph /  3.2km/h 8.0mph /  12.9km/h 50% 0.00in /  0mm
19:39 70.4 °F /  21.3 °C 50.9 °F /  10.5 °C 29.85in /  1010.7hPa NNW 3.0mph /  4.8km/h 8.0mph /  12.9km/h 50% 0.00in /  0mm
19:44 70.3 °F /  21.3 °C 50.2 °F /  10.1 °C 29.84in /  1010.4hPa North 4.0mph /  6.4km/h 9.0mph /  14.5km/h 49% 0.00in /  0mm
19:54 69.5 °F /  20.8 °C 49.5 °F /  9.7 °C 29.84in /  1010.4hPa NNW 2.0mph /  3.2km/h 7.0mph /  11.3km/h 49% 0.00in /  0mm
19:59 69.3 °F /  20.7 °C 49.9 °F /  9.9 °C 29.84in /  1010.4hPa North 2.0mph /  3.2km/h 7.0mph /  11.3km/h 50% 0.00in /  0mm
20:04 69.0 °F /  20.6 °C 49.6 °F /  9.8 °C 29.84in /  1010.4hPa North 3.0mph /  4.8km/h 8.0mph /  12.9km/h 50% 0.00in /  0mm
20:09 69.1 °F /  20.6 °C 49.7 °F /  9.8 °C 29.84in /  1010.4hPa NW 2.0mph /  3.2km/h 5.0mph /  8km/h 50% 0.00in /  0mm
20:14 68.7 °F /  20.4 °C 49.3 °F /  9.6 °C 29.84in /  1010.4hPa NNW 2.0mph /  3.2km/h 5.0mph /  8km/h 50% 0.00in /  0mm
20:19 68.3 °F /  20.2 °C 50.0 °F /  10 °C 29.84in /  1010.4hPa NNW 2.0mph /  3.2km/h 6.0mph /  9.7km/h 52% 0.00in /  0mm
20:24 68.0 °F /  20 °C 49.7 °F /  9.8 °C 29.84in /  1010.4hPa NNW 2.0mph /  3.2km/h 6.0mph /  9.7km/h 52% 0.00in /  0mm
20:29 67.7 °F /  19.8 °C 49.4 °F /  9.7 °C 29.84in /  1010.4hPa NNW 2.0mph /  3.2km/h 5.0mph /  8km/h 52% 0.00in /  0mm
20:34 67.6 °F /  19.8 °C 49.3 °F /  9.6 °C 29.84in /  1010.4hPa NNW 4.0mph /  6.4km/h 5.0mph /  8km/h 52% 0.00in /  0mm
20:39 67.1 °F /  19.5 °C 49.4 °F /  9.7 °C 29.84in /  1010.4hPa NNW 3.0mph /  4.8km/h 4.0mph /  6.4km/h 53% 0.00in /  0mm
20:44 67.0 °F /  19.4 °C 49.3 °F /  9.6 °C 29.83in /  1010hPa NNW 2.0mph /  3.2km/h 6.0mph /  9.7km/h 53% 0.00in /  0mm
20:49 66.9 °F /  19.4 °C 49.2 °F /  9.6 °C 29.83in /  1010hPa NW 1.0mph /  1.6km/h 5.0mph /  8km/h 53% 0.00in /  0mm
20:54 66.5 °F /  19.2 °C 48.8 °F /  9.3 °C 29.83in /  1010hPa NW 1.0mph /  1.6km/h 2.0mph /  3.2km/h 53% 0.00in /  0mm
20:59 66.2 °F /  19 °C 48.6 °F /  9.2 °C 29.84in /  1010.4hPa Calm   2.0mph /  3.2km/h 53% 0.00in /  0mm
21:04 65.9 °F /  18.8 °C 48.8 °F /  9.3 °C 29.84in /  1010.4hPa Calm     54% 0.00in /  0mm
21:09 65.6 °F /  18.7 °C 48.5 °F /  9.2 °C 29.84in /  1010.4hPa Calm     54% 0.00in /  0mm
21:14 65.6 °F /  18.7 °C 49.0 °F /  9.4 °C 29.84in /  1010.4hPa Calm     55% 0.00in /  0mm
21:19 65.1 °F /  18.4 °C 48.5 °F /  9.2 °C 29.84in /  1010.4hPa Calm     55% 0.00in /  0mm
21:24 64.9 °F /  18.3 °C 48.8 °F /  9.3 °C 29.84in /  1010.4hPa Calm     56% 0.00in /  0mm
21:29 64.6 °F /  18.1 °C 48.5 °F /  9.2 °C 29.84in /  1010.4hPa Calm     56% 0.00in /  0mm
21:34 64.4 °F /  18 °C 48.8 °F /  9.3 °C 29.84in /  1010.4hPa Calm     57% 0.00in /  0mm
21:39 64.0 °F /  17.8 °C 48.9 °F /  9.4 °C 29.84in /  1010.4hPa Calm     58% 0.00in /  0mm
21:44 63.8 °F /  17.7 °C 48.7 °F /  9.3 °C 29.84in /  1010.4hPa Calm     58% 0.00in /  0mm
21:49 63.6 °F /  17.6 °C 48.5 °F /  9.2 °C 29.84in /  1010.4hPa Calm     58% 0.00in /  0mm
21:54 63.6 °F /  17.6 °C 48.5 °F /  9.2 °C 29.84in /  1010.4hPa Calm     58% 0.00in /  0mm
21:59 63.4 °F /  17.4 °C 48.8 °F /  9.3 °C 29.84in /  1010.4hPa Calm     59% 0.00in /  0mm
22:04 63.1 °F /  17.3 °C 49.0 °F /  9.4 °C 29.84in /  1010.4hPa Calm     60% 0.00in /  0mm
22:09 62.6 °F /  17 °C 49.4 °F /  9.7 °C 29.84in /  1010.4hPa Calm     62% 0.00in /  0mm
22:14 62.3 °F /  16.8 °C 50.0 °F /  10 °C 29.84in /  1010.4hPa Calm     64% 0.00in /  0mm
22:19 62.0 °F /  16.7 °C 49.7 °F /  9.8 °C 29.84in /  1010.4hPa Calm     64% 0.00in /  0mm
22:24 61.6 °F /  16.4 °C 49.7 °F /  9.8 °C 29.85in /  1010.7hPa Calm   2.0mph /  3.2km/h 65% 0.00in /  0mm
22:29 61.6 °F /  16.4 °C 50.5 °F /  10.3 °C 29.84in /  1010.4hPa SW 2.0mph /  3.2km/h 2.0mph /  3.2km/h 67% 0.00in /  0mm
22:34 61.8 °F /  16.6 °C 52.3 °F /  11.3 °C 29.85in /  1010.7hPa South 2.0mph /  3.2km/h 4.0mph /  6.4km/h 71% 0.00in /  0mm
22:39 61.9 °F /  16.6 °C 53.5 °F /  11.9 °C 29.85in /  1010.7hPa South 1.0mph /  1.6km/h 4.0mph /  6.4km/h 74% 0.00in /  0mm
22:44 61.4 °F /  16.3 °C 53.4 °F /  11.9 °C 29.84in /  1010.4hPa SSW 1.0mph /  1.6km/h 4.0mph /  6.4km/h 75% 0.00in /  0mm
22:49 61.0 °F /  16.1 °C 53.7 °F /  12.1 °C 29.84in /  1010.4hPa SSW 1.0mph /  1.6km/h 4.0mph /  6.4km/h 77% 0.00in /  0mm
22:54 60.8 °F /  16 °C 53.5 °F /  11.9 °C 29.84in /  1010.4hPa Calm   2.0mph /  3.2km/h 77% 0.00in /  0mm
22:59 60.6 °F /  15.9 °C 53.7 °F /  12.1 °C 29.84in /  1010.4hPa Calm     78% 0.00in /  0mm
23:04 60.5 °F /  15.8 °C 54.0 °F /  12.2 °C 29.84in /  1010.4hPa Calm     79% 0.00in /  0mm
23:09 60.3 °F /  15.7 °C 54.1 °F /  12.3 °C 29.84in /  1010.4hPa Calm     80% 0.00in /  0mm
23:14 60.1 °F /  15.6 °C 53.9 °F /  12.2 °C 29.84in /  1010.4hPa Calm     80% 0.00in /  0mm
23:19 59.7 °F /  15.4 °C 53.9 °F /  12.2 °C 29.83in /  1010hPa Calm     81% 0.00in /  0mm
23:24 59.5 °F /  15.3 °C 53.3 °F /  11.8 °C 29.83in /  1010hPa Calm     80% 0.00in /  0mm
23:29 59.3 °F /  15.2 °C 53.1 °F /  11.7 °C 29.83in /  1010hPa Calm     80% 0.00in /  0mm
23:34 59.1 °F /  15.1 °C 53.3 °F /  11.8 °C 29.83in /  1010hPa Calm     81% 0.00in /  0mm
23:39 59.4 °F /  15.2 °C 53.2 °F /  11.8 °C 29.83in /  1010hPa Calm     80% 0.00in /  0mm
23:44 59.3 °F /  15.2 °C 52.8 °F /  11.6 °C 29.83in /  1010hPa Calm     79% 0.00in /  0mm
23:49 59.2 °F /  15.1 °C 52.7 °F /  11.5 °C 29.83in /  1010hPa Calm     79% 0.00in /  0mm
23:54 59.0 °F /  15 °C 52.5 °F /  11.4 °C 29.82in /  1009.7hPa Calm     79% 0.00in /  0mm
23:59 58.9 °F /  14.9 °C 52.7 °F /  11.5 °C 29.82in /  1009.7hPa Calm     80% 0.00in /  0mm
Buffalo, New York, USA
Compliments of Weather Underground - 2.5 mb